Time,TemperatureF,DewpointF,PressureIn,WindDirection,WindDirectionDegrees,WindSpeedMPH,WindSpeedGustMPH,Humidity,HourlyPrecipIn,Conditions,Clouds,dailyrainin,SolarRadiationWatts/m^2,SoftwareType,DateUTC
2013-07-06 00:01:00,71.5,68.4,30.01,WNW,283,0.0,3.0,90,0.00,,,0.09,0.00,VWS V14.00,2013-07-06 04:01:00,
2013-07-06 00:02:00,71.6,68.5,30.01,WNW,283,0.0,3.0,90,0.00,,,0.00,0.00,VWS V14.00,2013-07-06 04:02:00,
2013-07-06 00:07:00,71.7,68.6,30.01,WNW,283,0.0,2.0,90,0.00,,,0.00,0.00,VWS V14.00,2013-07-06 04:07:00,
2013-07-06 00:12:00,71.8,68.7,30.01,WNW,282,0.0,3.0,90,0.00,,,0.00,0.00,VWS V14.00,2013-07-06 04:12:00,
2013-07-06 00:17:00,71.8,68.7,30.01,WNW,291,0.0,3.0,90,0.00,,,0.00,0.00,VWS V14.00,2013-07-06 04:17:00,
2013-07-06 00:22:00,71.9,68.8,30.01,WNW,300,0.0,4.0,90,0.00,,,0.00,0.00,VWS V14.00,2013-07-06 04:22:00,
2013-07-06 00:27:00,71.9,68.8,30.01,WNW,294,0.0,3.0,90,0.00,,,0.00,0.00,VWS V14.00,2013-07-06 04:27:00,
2013-07-06 00:32:00,71.9,68.5,30.01,WNW,286,0.0,4.0,89,0.00,,,0.00,0.00,VWS V14.00,2013-07-06 04:32:00,
2013-07-06 00:37:00,71.9,68.5,30.00,WNW,289,0.0,4.0,89,0.00,,,0.00,0.00,VWS V14.00,2013-07-06 04:37:00,
2013-07-06 00:42:00,72.0,68.6,30.00,WNW,285,0.0,2.0,89,0.00,,,0.00,0.00,VWS V14.00,2013-07-06 04:42:00,
2013-07-06 00:47:00,72.0,68.6,30.00,West,275,1.0,6.0,89,0.00,,,0.00,0.00,VWS V14.00,2013-07-06 04:47:00,
2013-07-06 00:52:00,72.0,68.6,30.00,WNW,284,1.0,4.0,89,0.00,,,0.00,0.00,VWS V14.00,2013-07-06 04:52:00,
2013-07-06 00:57:00,72.0,68.6,30.00,WNW,284,3.0,5.0,89,0.00,,,0.00,0.00,VWS V14.00,2013-07-06 04:57:00,
2013-07-06 01:02:00,72.0,68.6,30.00,West,269,3.0,3.0,89,0.00,,,0.00,0.00,VWS V14.00,2013-07-06 05:02:00,
2013-07-06 01:07:00,72.0,68.6,30.00,WNW,300,0.0,0.0,89,0.00,,,0.00,0.00,VWS V14.00,2013-07-06 05:07:00,
2013-07-06 01:12:00,72.1,68.7,30.01,ESE,110,0.0,0.0,89,0.00,,,0.00,0.00,VWS V14.00,2013-07-06 05:12:00,
2013-07-06 01:17:00,72.1,68.7,30.01,SE,128,0.0,1.0,89,0.00,,,0.00,0.00,VWS V14.00,2013-07-06 05:17:00,
2013-07-06 01:22:00,72.1,68.7,30.00,SE,128,1.0,1.0,89,0.00,,,0.00,0.00,VWS V14.00,2013-07-06 05:22:00,
2013-07-06 01:27:00,72.1,68.7,30.01,SE,129,0.0,1.0,89,0.00,,,0.00,0.00,VWS V14.00,2013-07-06 05:27:00,
2013-07-06 01:32:00,72.0,68.6,30.01,SE,129,0.0,0.0,89,0.00,,,0.00,0.00,VWS V14.00,2013-07-06 05:32:00,
2013-07-06 01:37:00,72.0,68.6,30.01,SE,129,0.0,1.0,89,0.00,,,0.00,0.00,VWS V14.00,2013-07-06 05:37:00,
2013-07-06 01:42:00,71.9,68.5,30.01,SE,129,0.0,1.0,89,0.00,,,0.00,0.00,VWS V14.00,2013-07-06 05:42:00,
2013-07-06 01:47:00,71.8,68.4,30.00,SE,129,0.0,1.0,89,0.00,,,0.00,0.00,VWS V14.00,2013-07-06 05:47:00,
2013-07-06 01:52:00,71.7,68.3,30.00,SE,129,0.0,3.0,89,0.00,,,0.00,0.00,VWS V14.00,2013-07-06 05:52:00,
2013-07-06 01:57:00,71.5,68.1,30.00,SE,128,0.0,0.0,89,0.00,,,0.00,0.00,VWS V14.00,2013-07-06 05:57:00,
2013-07-06 02:02:00,71.4,68.0,30.00,SE,129,0.0,0.0,89,0.00,,,0.00,0.00,VWS V14.00,2013-07-06 06:02:00,
2013-07-06 02:07:00,71.2,68.1,30.00,SE,132,0.0,2.0,90,0.00,,,0.00,0.00,VWS V14.00,2013-07-06 06:07:00,
2013-07-06 02:12:00,71.1,68.0,30.00,SE,133,0.0,2.0,90,0.00,,,0.00,0.00,VWS V14.00,2013-07-06 06:12:00,
2013-07-06 02:17:00,70.9,67.8,30.00,SE,132,0.0,0.0,90,0.00,,,0.00,0.00,VWS V14.00,2013-07-06 06:17:00,
2013-07-06 02:22:00,70.7,67.6,30.00,SE,133,0.0,1.0,90,0.00,,,0.00,0.00,VWS V14.00,2013-07-06 06:22:00,
2013-07-06 02:27:00,70.6,67.5,30.00,SE,133,0.0,1.0,90,0.00,,,0.00,0.00,VWS V14.00,2013-07-06 06:27:00,
2013-07-06 02:32:00,70.4,67.3,30.00,SE,133,0.0,0.0,90,0.00,,,0.00,0.00,VWS V14.00,2013-07-06 06:32:00,
2013-07-06 02:37:00,70.2,67.1,30.00,SE,133,0.0,0.0,90,0.00,,,0.00,0.00,VWS V14.00,2013-07-06 06:37:00,
2013-07-06 02:42:00,70.1,67.0,30.00,SE,133,0.0,0.0,90,0.00,,,0.00,0.00,VWS V14.00,2013-07-06 06:42:00,
2013-07-06 02:47:00,70.0,67.3,30.00,SE,131,0.0,1.0,91,0.00,,,0.00,0.00,VWS V14.00,2013-07-06 06:47:00,
2013-07-06 02:52:00,69.8,67.1,30.00,SE,131,0.0,0.0,91,0.00,,,0.00,0.00,VWS V14.00,2013-07-06 06:52:00,
2013-07-06 02:57:00,69.7,67.0,30.00,SE,131,0.0,1.0,91,0.00,,,0.00,0.00,VWS V14.00,2013-07-06 06:57:00,
2013-07-06 03:02:00,69.5,66.8,30.00,SE,131,0.0,0.0,91,0.00,,,0.00,0.00,VWS V14.00,2013-07-06 07:02:00,
2013-07-06 03:07:00,69.4,66.7,30.00,SE,131,0.0,0.0,91,0.00,,,0.00,0.00,VWS V14.00,2013-07-06 07:07:00,
2013-07-06 03:12:00,69.3,66.6,30.00,SE,131,0.0,0.0,91,0.00,,,0.00,0.00,VWS V14.00,2013-07-06 07:12:00,
2013-07-06 03:17:00,69.2,66.5,30.00,SE,130,0.0,0.0,91,0.00,,,0.00,0.00,VWS V14.00,2013-07-06 07:17:00,
2013-07-06 03:22:00,69.2,66.8,30.00,SE,131,0.0,0.0,92,0.00,,,0.00,0.00,VWS V14.00,2013-07-06 07:22:00,
2013-07-06 03:27:00,69.1,66.7,30.00,SE,131,0.0,0.0,92,0.00,,,0.00,0.00,VWS V14.00,2013-07-06 07:27:00,
2013-07-06 03:32:00,69.1,66.7,30.00,SE,131,0.0,1.0,92,0.00,,,0.00,0.00,VWS V14.00,2013-07-06 07:32:00,
2013-07-06 03:37:00,69.0,66.6,30.00,SE,131,0.0,2.0,92,0.00,,,0.00,0.00,VWS V14.00,2013-07-06 07:37:00,
2013-07-06 03:42:00,69.1,66.7,30.00,SE,131,0.0,2.0,92,0.00,,,0.00,0.00,VWS V14.00,2013-07-06 07:42:00,
2013-07-06 03:47:00,69.1,66.7,30.00,SE,131,0.0,1.0,92,0.00,,,0.00,0.00,VWS V14.00,2013-07-06 07:47:00,
2013-07-06 03:52:00,69.0,66.6,30.00,SE,131,0.0,0.0,92,0.00,,,0.00,0.00,VWS V14.00,2013-07-06 07:52:00,
2013-07-06 03:57:00,69.0,66.6,30.00,SE,131,0.0,1.0,92,0.00,,,0.00,0.00,VWS V14.00,2013-07-06 07:57:00,
2013-07-06 04:02:00,69.0,66.6,30.00,SE,131,0.0,3.0,92,0.00,,,0.00,0.00,VWS V14.00,2013-07-06 08:02:00,
2013-07-06 04:07:00,69.0,66.6,30.00,SE,131,0.0,0.0,92,0.00,,,0.00,0.00,VWS V14.00,2013-07-06 08:07:00,
2013-07-06 04:12:00,69.0,66.9,30.00,SE,131,0.0,0.0,93,0.00,,,0.00,0.00,VWS V14.00,2013-07-06 08:12:00,
2013-07-06 04:17:00,69.0,66.9,30.00,SE,131,0.0,0.0,93,0.00,,,0.00,0.00,VWS V14.00,2013-07-06 08:17:00,
2013-07-06 04:22:00,69.0,66.9,30.00,SE,131,0.0,0.0,93,0.00,,,0.00,0.00,VWS V14.00,2013-07-06 08:22:00,
2013-07-06 04:27:00,68.9,66.8,30.00,SE,131,0.0,1.0,93,0.00,,,0.00,0.00,VWS V14.00,2013-07-06 08:27:00,
2013-07-06 04:32:00,68.9,66.8,30.00,SE,131,0.0,0.0,93,0.00,,,0.00,0.00,VWS V14.00,2013-07-06 08:32:00,
2013-07-06 04:37:00,68.9,66.8,30.00,SE,131,0.0,0.0,93,0.00,,,0.00,0.00,VWS V14.00,2013-07-06 08:37:00,
2013-07-06 04:42:00,68.9,66.8,30.00,SE,131,0.0,0.0,93,0.00,,,0.00,0.00,VWS V14.00,2013-07-06 08:42:00,
2013-07-06 04:47:00,68.9,66.8,30.00,SE,130,1.0,1.0,93,0.00,,,0.00,0.00,VWS V14.00,2013-07-06 08:47:00,
2013-07-06 04:52:00,68.9,66.8,30.00,SE,131,0.0,1.0,93,0.00,,,0.00,0.00,VWS V14.00,2013-07-06 08:52:00,
2013-07-06 04:57:00,68.9,66.8,30.00,SE,131,0.0,2.0,93,0.00,,,0.00,0.00,VWS V14.00,2013-07-06 08:57:00,
2013-07-06 05:02:00,68.9,66.8,30.00,SE,131,0.0,1.0,93,0.00,,,0.00,0.00,VWS V14.00,2013-07-06 09:02:00,
2013-07-06 05:07:00,68.9,66.8,30.00,SE,131,0.0,0.0,93,0.00,,,0.00,0.00,VWS V14.00,2013-07-06 09:07:00,
2013-07-06 05:13:00,68.9,66.8,30.00,SE,131,0.0,1.0,93,0.00,,,0.00,0.00,VWS V14.00,2013-07-06 09:13:00,
2013-07-06 05:18:00,68.9,66.8,30.00,SE,130,0.0,0.0,93,0.00,,,0.00,0.00,VWS V14.00,2013-07-06 09:18:00,
2013-07-06 05:23:00,68.8,66.7,30.00,SE,131,0.0,0.0,93,0.00,,,0.00,0.00,VWS V14.00,2013-07-06 09:23:00,
2013-07-06 05:28:00,68.7,66.6,30.00,SE,130,0.0,1.0,93,0.00,,,0.00,5.00,VWS V14.00,2013-07-06 09:28:00,
2013-07-06 05:33:00,68.6,66.5,30.00,SE,130,0.0,1.0,93,0.00,,,0.00,5.00,VWS V14.00,2013-07-06 09:33:00,
2013-07-06 05:38:00,68.6,66.5,30.00,SE,130,0.0,0.0,93,0.00,,,0.00,7.00,VWS V14.00,2013-07-06 09:38:00,
2013-07-06 05:43:00,68.6,66.5,30.00,SE,130,0.0,2.0,93,0.00,,,0.00,11.00,VWS V14.00,2013-07-06 09:43:00,
2013-07-06 05:48:00,68.6,66.5,30.00,SE,130,0.0,1.0,93,0.00,,,0.00,12.00,VWS V14.00,2013-07-06 09:48:00,
2013-07-06 05:53:00,68.6,66.8,30.01,SE,130,1.0,1.0,94,0.00,,,0.00,14.00,VWS V14.00,2013-07-06 09:53:00,
2013-07-06 05:58:00,68.6,66.8,30.00,ESE,123,0.0,2.0,94,0.00,,,0.00,19.00,VWS V14.00,2013-07-06 09:58:00,
2013-07-06 06:03:00,68.6,66.8,30.00,NNE,15,0.0,0.0,94,0.00,,,0.00,21.00,VWS V14.00,2013-07-06 10:03:00,
2013-07-06 06:08:00,68.6,66.8,30.01,NNE,14,0.0,1.0,94,0.00,,,0.00,23.00,VWS V14.00,2013-07-06 10:08:00,
2013-07-06 06:13:00,68.6,66.8,30.01,NNE,15,0.0,1.0,94,0.00,,,0.00,26.00,VWS V14.00,2013-07-06 10:13:00,
2013-07-06 06:18:00,68.6,66.8,30.01,North,10,0.0,0.0,94,0.00,,,0.00,30.00,VWS V14.00,2013-07-06 10:18:00,
2013-07-06 06:23:00,68.6,66.8,30.01,North,10,0.0,1.0,94,0.00,,,0.00,37.00,VWS V14.00,2013-07-06 10:23:00,
2013-07-06 06:28:00,68.8,67.0,30.01,North,360,0.0,1.0,94,0.00,,,0.00,44.00,VWS V14.00,2013-07-06 10:28:00,
2013-07-06 06:33:00,68.9,67.1,30.01,North,360,0.0,1.0,94,0.00,,,0.00,60.00,VWS V14.00,2013-07-06 10:33:00,
2013-07-06 06:38:00,69.0,67.2,30.01,NW,308,2.0,3.0,94,0.00,,,0.00,56.00,VWS V14.00,2013-07-06 10:38:00,
2013-07-06 06:43:00,69.1,67.3,30.01,NW,305,4.0,6.0,94,0.00,,,0.00,62.00,VWS V14.00,2013-07-06 10:43:00,
2013-07-06 06:48:00,69.4,67.6,30.01,WNW,293,0.0,2.0,94,0.00,,,0.00,54.00,VWS V14.00,2013-07-06 10:48:00,
2013-07-06 06:53:00,69.5,68.0,30.01,WNW,282,0.0,4.0,95,0.00,,,0.00,51.00,VWS V14.00,2013-07-06 10:53:00,
2013-07-06 06:58:00,69.7,68.2,30.01,WSW,257,1.0,5.0,95,0.00,,,0.00,83.00,VWS V14.00,2013-07-06 10:58:00,
2013-07-06 07:03:00,69.8,68.0,30.01,West,281,3.0,4.0,94,0.00,,,0.00,93.00,VWS V14.00,2013-07-06 11:03:00,
2013-07-06 07:08:00,70.0,68.2,30.01,WNW,300,0.0,3.0,94,0.00,,,0.00,104.00,VWS V14.00,2013-07-06 11:08:00,
2013-07-06 07:13:00,70.2,68.7,30.01,West,276,0.0,4.0,95,0.00,,,0.00,127.00,VWS V14.00,2013-07-06 11:13:00,
2013-07-06 07:18:00,70.4,68.6,30.01,West,277,0.0,1.0,94,0.00,,,0.00,139.00,VWS V14.00,2013-07-06 11:18:00,
2013-07-06 07:23:00,70.7,68.9,30.01,WNW,292,0.0,2.0,94,0.00,,,0.00,155.00,VWS V14.00,2013-07-06 11:23:00,
2013-07-06 07:28:00,71.0,69.2,30.01,WNW,291,0.0,1.0,94,0.00,,,0.00,163.00,VWS V14.00,2013-07-06 11:28:00,
2013-07-06 07:33:00,71.3,69.5,30.01,WNW,292,0.0,1.0,94,0.00,,,0.00,162.00,VWS V14.00,2013-07-06 11:33:00,
2013-07-06 07:38:00,71.7,69.9,30.01,WNW,292,0.0,2.0,94,0.00,,,0.00,172.00,VWS V14.00,2013-07-06 11:38:00,
2013-07-06 07:43:00,72.0,70.2,30.01,NW,306,0.0,0.0,94,0.00,,,0.00,148.00,VWS V14.00,2013-07-06 11:43:00,
2013-07-06 07:48:00,72.4,70.3,30.01,West,264,1.0,7.0,93,0.00,,,0.00,123.00,VWS V14.00,2013-07-06 11:48:00,
2013-07-06 07:53:00,72.6,70.5,30.01,WNW,294,0.0,3.0,93,0.00,,,0.00,116.00,VWS V14.00,2013-07-06 11:53:00,
2013-07-06 07:58:00,73.0,70.5,30.01,WNW,298,6.0,8.0,92,0.00,,,0.00,114.00,VWS V14.00,2013-07-06 11:58:00,
2013-07-06 08:03:00,73.3,70.2,30.01,West,259,3.0,7.0,90,0.00,,,0.00,197.00,VWS V14.00,2013-07-06 12:03:00,
2013-07-06 08:08:00,73.7,70.3,30.01,WNW,299,3.0,8.0,89,0.00,,,0.00,420.00,VWS V14.00,2013-07-06 12:08:00,
2013-07-06 08:13:00,74.2,70.1,30.01,SSE,155,0.0,8.0,87,0.00,,,0.00,461.00,VWS V14.00,2013-07-06 12:13:00,
2013-07-06 08:18:00,75.1,71.6,30.02,South,182,2.0,4.0,89,0.00,,,0.00,482.00,VWS V14.00,2013-07-06 12:18:00,
2013-07-06 08:23:00,75.7,71.6,30.01,SE,138,0.0,1.0,87,0.00,,,0.00,497.00,VWS V14.00,2013-07-06 12:23:00,
2013-07-06 08:28:00,76.1,71.6,30.01,South,182,0.0,1.0,86,0.00,,,0.00,540.00,VWS V14.00,2013-07-06 12:28:00,
2013-07-06 08:33:00,76.5,71.7,30.01,South,175,0.0,3.0,85,0.00,,,0.00,548.00,VWS V14.00,2013-07-06 12:33:00,
2013-07-06 08:38:00,77.1,72.2,30.01,SSE,160,1.0,1.0,85,0.00,,,0.00,575.00,VWS V14.00,2013-07-06 12:38:00,
2013-07-06 08:43:00,77.4,72.2,30.01,SSE,160,0.0,0.0,84,0.00,,,0.00,603.00,VWS V14.00,2013-07-06 12:43:00,
2013-07-06 08:48:00,78.0,72.8,30.01,SSW,192,0.0,4.0,84,0.00,,,0.00,381.00,VWS V14.00,2013-07-06 12:48:00,
2013-07-06 08:53:00,78.2,72.3,30.01,South,185,0.0,3.0,82,0.00,,,0.00,251.00,VWS V14.00,2013-07-06 12:53:00,
2013-07-06 08:58:00,78.5,72.6,30.01,South,175,0.0,4.0,82,0.00,,,0.00,591.00,VWS V14.00,2013-07-06 12:58:00,
2013-07-06 09:03:00,78.7,72.0,30.01,South,175,0.0,3.0,80,0.00,,,0.00,206.00,VWS V14.00,2013-07-06 13:03:00,
2013-07-06 09:08:00,78.7,71.6,30.01,South,169,0.0,4.0,79,0.00,,,0.00,243.00,VWS V14.00,2013-07-06 13:08:00,
2013-07-06 09:13:00,78.8,72.1,30.01,SSE,160,0.0,5.0,80,0.00,,,0.00,701.00,VWS V14.00,2013-07-06 13:13:00,
2013-07-06 09:18:00,79.2,72.5,30.01,SSE,150,0.0,3.0,80,0.00,,,0.00,793.00,VWS V14.00,2013-07-06 13:18:00,
2013-07-06 09:23:00,79.6,72.9,30.00,SSE,167,0.0,4.0,80,0.00,,,0.00,369.00,VWS V14.00,2013-07-06 13:23:00,
2013-07-06 09:28:00,79.8,72.7,30.00,SE,144,1.0,4.0,79,0.00,,,0.00,701.00,VWS V14.00,2013-07-06 13:28:00,
2013-07-06 09:33:00,80.2,73.1,30.00,SSE,161,2.0,4.0,79,0.00,,,0.00,633.00,VWS V14.00,2013-07-06 13:33:00,
2013-07-06 09:38:00,80.3,72.8,30.01,SSE,161,0.0,3.0,78,0.00,,,0.00,258.00,VWS V14.00,2013-07-06 13:38:00,
2013-07-06 09:43:00,80.0,72.2,30.01,SE,130,0.0,4.0,77,0.00,,,0.00,269.00,VWS V14.00,2013-07-06 13:43:00,
2013-07-06 09:48:00,79.6,72.1,30.01,SSE,150,0.0,4.0,78,0.00,,,0.00,404.00,VWS V14.00,2013-07-06 13:48:00,
2013-07-06 09:53:00,79.3,71.8,30.01,SSE,165,0.0,2.0,78,0.00,,,0.00,392.00,VWS V14.00,2013-07-06 13:53:00,
2013-07-06 09:58:00,79.3,72.2,30.01,SE,142,0.0,2.0,79,0.00,,,0.00,441.00,VWS V14.00,2013-07-06 13:58:00,
2013-07-06 10:03:00,79.2,72.5,30.01,ESE,114,4.0,4.0,80,0.00,,,0.00,526.00,VWS V14.00,2013-07-06 14:03:00,
2013-07-06 10:08:00,79.3,71.8,30.01,SSE,159,1.0,5.0,78,0.00,,,0.00,418.00,VWS V14.00,2013-07-06 14:08:00,
2013-07-06 10:14:00,79.0,71.2,30.01,SSE,167,0.0,3.0,77,0.00,,,0.00,306.00,VWS V14.00,2013-07-06 14:14:00,
2013-07-06 10:19:00,78.8,71.4,30.01,ESE,118,3.0,5.0,78,0.00,,,0.00,357.00,VWS V14.00,2013-07-06 14:19:00,
2013-07-06 10:24:00,78.5,71.4,30.01,SSE,153,3.0,3.0,79,0.00,,,0.00,265.00,VWS V14.00,2013-07-06 14:24:00,
2013-07-06 10:29:00,78.3,71.3,30.01,SSE,154,0.0,1.0,79,0.00,,,0.00,244.00,VWS V14.00,2013-07-06 14:29:00,
2013-07-06 10:34:00,78.2,71.2,30.01,SE,141,0.0,3.0,79,0.00,,,0.00,234.00,VWS V14.00,2013-07-06 14:34:00,
2013-07-06 10:39:00,78.0,71.0,30.01,SE,142,0.0,3.0,79,0.00,,,0.00,287.00,VWS V14.00,2013-07-06 14:39:00,
2013-07-06 10:44:00,78.0,71.3,30.01,SE,144,0.0,1.0,80,0.00,,,0.00,202.00,VWS V14.00,2013-07-06 14:44:00,
2013-07-06 10:49:00,77.9,71.2,30.01,SE,142,0.0,1.0,80,0.00,,,0.00,178.00,VWS V14.00,2013-07-06 14:49:00,
2013-07-06 10:54:00,77.8,71.5,30.01,SE,144,2.0,2.0,81,0.00,,,0.00,206.00,VWS V14.00,2013-07-06 14:54:00,
2013-07-06 10:59:00,77.6,70.9,30.01,SE,144,0.0,1.0,80,0.00,,,0.00,320.00,VWS V14.00,2013-07-06 14:59:00,
2013-07-06 11:04:00,77.5,71.6,30.01,SE,144,0.0,2.0,82,0.00,,,0.00,399.00,VWS V14.00,2013-07-06 15:04:00,
2013-07-06 11:09:00,77.6,71.7,30.01,SE,144,0.0,1.0,82,0.00,,,0.00,346.00,VWS V14.00,2013-07-06 15:09:00,
2013-07-06 11:14:00,77.6,71.3,30.01,SE,144,0.0,1.0,81,0.00,,,0.00,193.00,VWS V14.00,2013-07-06 15:14:00,
2013-07-06 11:19:00,77.5,70.8,30.01,SE,144,0.0,0.0,80,0.00,,,0.00,214.00,VWS V14.00,2013-07-06 15:19:00,
2013-07-06 11:24:00,77.5,71.2,30.01,SE,144,0.0,1.0,81,0.00,,,0.00,279.00,VWS V14.00,2013-07-06 15:24:00,
2013-07-06 11:29:00,77.8,71.5,30.01,SE,144,0.0,1.0,81,0.00,,,0.00,364.00,VWS V14.00,2013-07-06 15:29:00,
2013-07-06 11:34:00,78.3,73.1,30.01,SE,144,0.0,1.0,84,0.00,,,0.00,759.00,VWS V14.00,2013-07-06 15:34:00,
2013-07-06 11:39:00,78.9,73.3,30.01,SE,143,1.0,1.0,83,0.00,,,0.00,504.00,VWS V14.00,2013-07-06 15:39:00,
2013-07-06 11:44:00,79.5,73.5,30.02,South,190,0.0,4.0,82,0.00,,,0.00,334.00,VWS V14.00,2013-07-06 15:44:00,
2013-07-06 11:49:00,79.6,72.5,30.02,South,190,0.0,3.0,79,0.00,,,0.00,172.00,VWS V14.00,2013-07-06 15:49:00,
2013-07-06 11:54:00,79.7,72.6,30.02,South,190,0.0,1.0,79,0.00,,,0.00,139.00,VWS V14.00,2013-07-06 15:54:00,
2013-07-06 11:59:00,79.7,72.2,30.01,SSW,198,0.0,3.0,78,0.00,,,0.00,146.00,VWS V14.00,2013-07-06 15:59:00,
2013-07-06 12:04:00,79.6,71.8,30.01,SSW,198,0.0,4.0,77,0.00,,,0.00,285.00,VWS V14.00,2013-07-06 16:04:00,
2013-07-06 12:09:00,79.6,71.8,30.01,NNW,329,0.0,3.0,77,0.00,,,0.00,408.00,VWS V14.00,2013-07-06 16:09:00,
2013-07-06 12:15:00,79.6,70.6,30.01,West,280,2.0,7.0,74,0.00,,,0.00,991.00,VWS V14.00,2013-07-06 16:15:00,
2013-07-06 12:20:00,80.4,71.8,30.01,NW,315,0.0,4.0,75,0.00,,,0.00,1060.00,VWS V14.00,2013-07-06 16:20:00,
2013-07-06 12:25:00,81.3,72.2,30.01,NW,313,2.0,9.0,74,0.00,,,0.00,1116.00,VWS V14.00,2013-07-06 16:25:00,
2013-07-06 12:30:00,81.6,70.9,30.01,NNW,330,2.0,6.0,70,0.00,,,0.00,490.00,VWS V14.00,2013-07-06 16:30:00,
2013-07-06 12:35:00,81.9,70.7,30.01,West,271,5.0,6.0,69,0.00,,,0.00,401.00,VWS V14.00,2013-07-06 16:35:00,
2013-07-06 12:40:00,82.1,70.9,30.00,WSW,254,0.0,7.0,69,0.00,,,0.00,983.00,VWS V14.00,2013-07-06 16:40:00,
2013-07-06 12:45:00,82.6,72.2,30.00,West,264,3.0,4.0,71,0.00,,,0.00,432.00,VWS V14.00,2013-07-06 16:45:00,
2013-07-06 12:50:00,83.1,70.6,30.00,West,274,0.0,6.0,66,0.00,,,0.00,1083.00,VWS V14.00,2013-07-06 16:50:00,
2013-07-06 12:55:00,83.6,71.1,30.00,West,270,0.0,5.0,66,0.00,,,0.00,1088.00,VWS V14.00,2013-07-06 16:55:00,
2013-07-06 13:01:00,84.0,71.9,30.00,West,278,9.0,9.0,67,0.00,,,0.00,932.00,VWS V14.00,2013-07-06 17:01:00,
2013-07-06 13:06:00,84.3,71.7,30.00,NW,315,5.0,5.0,66,0.00,,,0.00,1060.00,VWS V14.00,2013-07-06 17:06:00,
2013-07-06 13:11:00,84.5,73.2,30.00,NNW,331,6.0,6.0,69,0.00,,,0.00,1016.00,VWS V14.00,2013-07-06 17:11:00,
2013-07-06 13:16:00,84.7,72.1,30.00,NNW,332,4.0,5.0,66,0.00,,,0.00,1053.00,VWS V14.00,2013-07-06 17:16:00,
2013-07-06 13:21:00,84.6,70.6,30.00,WSW,253,3.0,7.0,63,0.00,,,0.00,1134.00,VWS V14.00,2013-07-06 17:21:00,
2013-07-06 13:26:00,85.0,71.5,30.00,NW,323,1.0,5.0,64,0.00,,,0.00,1107.00,VWS V14.00,2013-07-06 17:26:00,
2013-07-06 13:31:00,85.0,70.1,29.99,NW,306,0.0,0.0,61,0.00,,,0.00,1051.00,VWS V14.00,2013-07-06 17:31:00,
2013-07-06 13:36:00,85.0,71.0,29.99,West,273,2.0,2.0,63,0.00,,,0.00,1048.00,VWS V14.00,2013-07-06 17:36:00,
2013-07-06 13:42:00,85.3,70.8,30.00,NW,316,0.0,1.0,62,0.00,,,0.00,1055.00,VWS V14.00,2013-07-06 17:42:00,
2013-07-06 13:47:00,85.6,70.6,29.99,NNE,19,3.0,4.0,61,0.00,,,0.00,1023.00,VWS V14.00,2013-07-06 17:47:00,
2013-07-06 13:52:00,85.9,69.9,29.99,WNW,303,0.0,1.0,59,0.00,,,0.00,1049.00,VWS V14.00,2013-07-06 17:52:00,
2013-07-06 13:57:00,86.1,69.1,29.99,NW,306,0.0,1.0,57,0.00,,,0.00,956.00,VWS V14.00,2013-07-06 17:57:00,
2013-07-06 14:02:00,86.7,73.5,29.99,SSE,155,0.0,4.0,65,0.00,,,0.00,1023.00,VWS V14.00,2013-07-06 18:02:00,
2013-07-06 14:08:00,86.8,73.6,29.99,SE,144,1.0,3.0,65,0.00,,,0.00,830.00,VWS V14.00,2013-07-06 18:08:00,
2013-07-06 14:13:00,86.6,73.0,30.00,NNE,33,3.0,4.0,64,0.00,,,0.00,830.00,VWS V14.00,2013-07-06 18:13:00,
2013-07-06 14:18:00,86.1,73.4,30.00,ESE,116,1.0,4.0,66,0.00,,,0.00,976.00,VWS V14.00,2013-07-06 18:18:00,
2013-07-06 14:23:00,85.8,73.1,30.00,ESE,116,3.0,5.0,66,0.00,,,0.00,879.00,VWS V14.00,2013-07-06 18:23:00,
2013-07-06 14:28:00,85.6,73.4,29.99,SSE,162,3.0,3.0,67,0.00,,,0.00,1005.00,VWS V14.00,2013-07-06 18:28:00,
2013-07-06 14:33:00,85.5,72.8,29.99,East,90,0.0,5.0,66,0.00,,,0.00,860.00,VWS V14.00,2013-07-06 18:33:00,
2013-07-06 14:38:00,85.5,71.9,29.99,SSE,159,2.0,3.0,64,0.00,,,0.00,1011.00,VWS V14.00,2013-07-06 18:38:00,
2013-07-06 14:44:00,85.7,73.5,29.99,South,173,1.0,4.0,67,0.00,,,0.00,997.00,VWS V14.00,2013-07-06 18:44:00,
2013-07-06 14:49:00,85.9,72.8,29.98,ESE,119,0.0,8.0,65,0.00,,,0.00,988.00,VWS V14.00,2013-07-06 18:49:00,
2013-07-06 14:54:00,85.6,72.0,29.98,SSE,161,4.0,5.0,64,0.00,,,0.00,571.00,VWS V14.00,2013-07-06 18:54:00,
2013-07-06 14:59:00,85.2,72.1,29.98,SSE,159,0.0,3.0,65,0.00,,,0.00,807.00,VWS V14.00,2013-07-06 18:59:00,
2013-07-06 15:04:00,85.2,72.1,29.98,SSE,163,3.0,4.0,65,0.00,,,0.00,997.00,VWS V14.00,2013-07-06 19:04:00,
2013-07-06 15:09:00,85.2,72.1,29.98,SE,127,0.0,5.0,65,0.00,,,0.00,958.00,VWS V14.00,2013-07-06 19:09:00,
2013-07-06 15:14:00,85.0,71.9,29.98,SSE,155,0.0,6.0,65,0.00,,,0.00,248.00,VWS V14.00,2013-07-06 19:14:00,
2013-07-06 15:20:00,84.8,72.2,29.98,SSE,167,1.0,4.0,66,0.00,,,0.00,889.00,VWS V14.00,2013-07-06 19:20:00,
2013-07-06 15:25:00,84.5,71.9,29.98,ESE,111,1.0,5.0,66,0.00,,,0.00,921.00,VWS V14.00,2013-07-06 19:25:00,
2013-07-06 15:30:00,84.3,71.7,29.98,South,171,5.0,5.0,66,0.00,,,0.00,754.00,VWS V14.00,2013-07-06 19:30:00,
2013-07-06 15:35:00,84.3,71.7,29.98,SSE,163,0.0,5.0,66,0.00,,,0.00,703.00,VWS V14.00,2013-07-06 19:35:00,
2013-07-06 15:41:00,84.4,72.7,29.98,SE,134,0.0,4.0,68,0.00,,,0.00,768.00,VWS V14.00,2013-07-06 19:41:00,
2013-07-06 15:46:00,84.5,71.9,29.98,SSE,159,0.0,1.0,66,0.00,,,0.00,540.00,VWS V14.00,2013-07-06 19:46:00,
2013-07-06 15:51:00,84.4,71.4,29.98,SSE,163,0.0,0.0,65,0.00,,,0.00,633.00,VWS V14.00,2013-07-06 19:51:00,
2013-07-06 15:56:00,84.6,72.0,29.98,SE,142,0.0,1.0,66,0.00,,,0.00,823.00,VWS V14.00,2013-07-06 19:56:00,
2013-07-06 16:01:00,84.8,72.6,29.98,SE,127,2.0,5.0,67,0.00,,,0.00,654.00,VWS V14.00,2013-07-06 20:01:00,
2013-07-06 16:06:00,84.8,71.3,29.97,SSE,159,0.0,3.0,64,0.00,,,0.00,466.00,VWS V14.00,2013-07-06 20:06:00,
2013-07-06 16:11:00,84.7,71.2,29.97,SSE,159,0.0,1.0,64,0.00,,,0.00,578.00,VWS V14.00,2013-07-06 20:11:00,
2013-07-06 16:16:00,84.5,71.0,29.97,SE,136,0.0,1.0,64,0.00,,,0.00,721.00,VWS V14.00,2013-07-06 20:16:00,
2013-07-06 16:21:00,84.3,69.9,29.97,SE,142,0.0,2.0,62,0.00,,,0.00,679.00,VWS V14.00,2013-07-06 20:21:00,
2013-07-06 16:26:00,84.3,70.3,29.96,SE,138,1.0,2.0,63,0.00,,,0.00,610.00,VWS V14.00,2013-07-06 20:26:00,
2013-07-06 16:32:00,84.4,71.4,29.96,SSE,151,0.0,2.0,65,0.00,,,0.00,427.00,VWS V14.00,2013-07-06 20:32:00,
2013-07-06 16:37:00,84.3,70.8,29.96,SE,134,0.0,3.0,64,0.00,,,0.00,258.00,VWS V14.00,2013-07-06 20:37:00,
2013-07-06 16:42:00,84.1,70.6,29.96,SE,132,0.0,2.0,64,0.00,,,0.00,292.00,VWS V14.00,2013-07-06 20:42:00,
2013-07-06 16:47:00,83.9,70.9,29.96,SSE,150,0.0,1.0,65,0.00,,,0.00,388.00,VWS V14.00,2013-07-06 20:47:00,
2013-07-06 16:52:00,83.7,70.7,29.96,SSE,150,0.0,1.0,65,0.00,,,0.00,339.00,VWS V14.00,2013-07-06 20:52:00,
2013-07-06 16:58:00,83.6,70.6,29.96,SSE,153,0.0,1.0,65,0.00,,,0.00,285.00,VWS V14.00,2013-07-06 20:58:00,
2013-07-06 17:03:00,83.6,71.1,29.96,SE,144,0.0,3.0,66,0.00,,,0.00,329.00,VWS V14.00,2013-07-06 21:03:00,
2013-07-06 17:08:00,83.7,71.6,29.96,SE,146,0.0,1.0,67,0.00,,,0.00,352.00,VWS V14.00,2013-07-06 21:08:00,
2013-07-06 17:13:00,83.8,70.8,29.96,SE,146,0.0,1.0,65,0.00,,,0.00,513.00,VWS V14.00,2013-07-06 21:13:00,
2013-07-06 17:18:00,84.0,71.0,29.96,SE,146,0.0,1.0,65,0.00,,,0.00,494.00,VWS V14.00,2013-07-06 21:18:00,
2013-07-06 17:23:00,84.2,70.7,29.96,SE,144,0.0,0.0,64,0.00,,,0.00,496.00,VWS V14.00,2013-07-06 21:23:00,
2013-07-06 17:28:00,84.4,71.4,29.96,SE,146,0.0,1.0,65,0.00,,,0.00,367.00,VWS V14.00,2013-07-06 21:28:00,
2013-07-06 17:33:00,84.6,71.1,29.95,SE,138,1.0,3.0,64,0.00,,,0.00,348.00,VWS V14.00,2013-07-06 21:33:00,
2013-07-06 17:39:00,84.4,70.0,29.95,SE,132,0.0,4.0,62,0.00,,,0.00,531.00,VWS V14.00,2013-07-06 21:39:00,
2013-07-06 17:44:00,84.3,69.9,29.95,ESE,120,0.0,2.0,62,0.00,,,0.00,499.00,VWS V14.00,2013-07-06 21:44:00,
2013-07-06 17:49:00,84.5,71.4,29.95,ESE,121,0.0,1.0,65,0.00,,,0.00,432.00,VWS V14.00,2013-07-06 21:49:00,
2013-07-06 17:54:00,84.7,69.8,29.95,ESE,121,0.0,0.0,61,0.00,,,0.00,446.00,VWS V14.00,2013-07-06 21:54:00,
2013-07-06 17:59:00,85.0,71.0,29.95,ESE,121,0.0,1.0,63,0.00,,,0.00,439.00,VWS V14.00,2013-07-06 21:59:00,
2013-07-06 18:04:00,85.3,70.8,29.95,ESE,121,0.0,1.0,62,0.00,,,0.00,411.00,VWS V14.00,2013-07-06 22:04:00,
2013-07-06 18:09:00,85.5,70.0,29.95,SSE,167,0.0,3.0,60,0.00,,,0.00,387.00,VWS V14.00,2013-07-06 22:09:00,
2013-07-06 18:14:00,85.5,68.0,29.95,WSW,251,0.0,5.0,56,0.00,,,0.00,348.00,VWS V14.00,2013-07-06 22:14:00,
2013-07-06 18:19:00,85.4,66.3,29.94,West,261,1.0,7.0,53,0.00,,,0.00,234.00,VWS V14.00,2013-07-06 22:19:00,
2013-07-06 18:24:00,85.2,66.7,29.95,WNW,300,0.0,7.0,54,0.00,,,0.00,334.00,VWS V14.00,2013-07-06 22:24:00,
2013-07-06 18:30:00,85.0,67.0,29.95,WNW,302,0.0,1.0,55,0.00,,,0.00,327.00,VWS V14.00,2013-07-06 22:30:00,
2013-07-06 18:35:00,84.8,65.8,29.94,NW,326,0.0,3.0,53,0.00,,,0.00,288.00,VWS V14.00,2013-07-06 22:35:00,
2013-07-06 18:40:00,84.7,65.1,29.94,West,269,1.0,8.0,52,0.00,,,0.00,292.00,VWS V14.00,2013-07-06 22:40:00,
2013-07-06 18:45:00,84.5,65.5,29.94,NNW,338,3.0,5.0,53,0.00,,,0.00,290.00,VWS V14.00,2013-07-06 22:45:00,
2013-07-06 18:50:00,84.2,65.2,29.94,NNW,327,1.0,5.0,53,0.00,,,0.00,269.00,VWS V14.00,2013-07-06 22:50:00,
2013-07-06 18:55:00,83.9,65.5,29.94,North,355,0.0,1.0,54,0.00,,,0.00,186.00,VWS V14.00,2013-07-06 22:55:00,
2013-07-06 19:00:00,83.8,65.9,29.94,North,355,0.0,2.0,55,0.00,,,0.00,197.00,VWS V14.00,2013-07-06 23:00:00,
2013-07-06 19:05:00,83.5,65.1,29.94,North,5,0.0,4.0,54,0.00,,,0.00,216.00,VWS V14.00,2013-07-06 23:05:00,
2013-07-06 19:11:00,83.2,65.4,29.94,North,5,2.0,2.0,55,0.00,,,0.00,144.00,VWS V14.00,2013-07-06 23:11:00,
2013-07-06 19:16:00,83.1,65.8,29.94,NW,319,1.0,3.0,56,0.00,,,0.00,195.00,VWS V14.00,2013-07-06 23:16:00,
2013-07-06 19:21:00,82.9,65.6,29.94,WNW,297,0.0,3.0,56,0.00,,,0.00,160.00,VWS V14.00,2013-07-06 23:21:00,
2013-07-06 19:26:00,82.7,66.4,29.94,WNW,295,1.0,1.0,58,0.00,,,0.00,142.00,VWS V14.00,2013-07-06 23:26:00,
2013-07-06 19:31:00,82.5,66.2,29.94,WNW,290,0.0,0.0,58,0.00,,,0.00,120.00,VWS V14.00,2013-07-06 23:31:00,
2013-07-06 19:36:00,82.3,67.0,29.94,WNW,290,0.0,0.0,60,0.00,,,0.00,77.00,VWS V14.00,2013-07-06 23:36:00,
2013-07-06 19:41:00,82.0,66.8,29.94,WNW,290,0.0,4.0,60,0.00,,,0.00,65.00,VWS V14.00,2013-07-06 23:41:00,
2013-07-06 19:46:00,81.5,66.8,29.94,WNW,283,0.0,3.0,61,0.00,,,0.00,47.00,VWS V14.00,2013-07-06 23:46:00,
2013-07-06 19:51:00,81.0,66.3,29.94,WNW,283,0.0,1.0,61,0.00,,,0.00,35.00,VWS V14.00,2013-07-06 23:51:00,
2013-07-06 19:56:00,80.5,66.3,29.94,WNW,284,0.0,4.0,62,0.00,,,0.00,33.00,VWS V14.00,2013-07-06 23:56:00,
2013-07-06 20:01:00,79.9,66.2,29.94,WNW,290,3.0,3.0,63,0.00,,,0.00,28.00,VWS V14.00,2013-07-07 00:01:00,
2013-07-06 20:06:00,79.4,65.7,29.94,WNW,284,0.0,1.0,63,0.00,,,0.00,26.00,VWS V14.00,2013-07-07 00:06:00,
2013-07-06 20:11:00,78.9,65.7,29.94,WNW,284,3.0,3.0,64,0.00,,,0.00,23.00,VWS V14.00,2013-07-07 00:11:00,
2013-07-06 20:16:00,78.4,65.7,29.94,WNW,291,0.0,2.0,65,0.00,,,0.00,19.00,VWS V14.00,2013-07-07 00:16:00,
2013-07-06 20:22:00,77.9,65.2,29.94,WNW,290,0.0,1.0,65,0.00,,,0.00,16.00,VWS V14.00,2013-07-07 00:22:00,
2013-07-06 20:27:00,77.3,64.6,29.94,WNW,301,2.0,3.0,65,0.00,,,0.00,12.00,VWS V14.00,2013-07-07 00:27:00,
2013-07-06 20:32:00,76.8,65.0,29.95,WNW,301,0.0,0.0,67,0.00,,,0.00,9.00,VWS V14.00,2013-07-07 00:32:00,
2013-07-06 20:37:00,76.4,65.1,29.94,WNW,301,0.0,2.0,68,0.00,,,0.00,5.00,VWS V14.00,2013-07-07 00:37:00,
2013-07-06 20:42:00,75.9,64.6,29.94,WNW,301,0.0,1.0,68,0.00,,,0.00,0.00,VWS V14.00,2013-07-07 00:42:00,
2013-07-06 20:47:00,75.5,65.0,29.95,WNW,301,1.0,1.0,70,0.00,,,0.00,0.00,VWS V14.00,2013-07-07 00:47:00,
2013-07-06 20:52:00,75.0,65.0,29.95,WNW,301,0.0,3.0,71,0.00,,,0.00,0.00,VWS V14.00,2013-07-07 00:52:00,
2013-07-06 20:57:00,74.5,64.5,29.95,WNW,300,0.0,4.0,71,0.00,,,0.00,0.00,VWS V14.00,2013-07-07 00:57:00,
2013-07-06 21:02:00,74.0,64.0,29.95,WNW,301,0.0,4.0,71,0.00,,,0.00,0.00,VWS V14.00,2013-07-07 01:02:00,
2013-07-06 21:07:00,73.5,63.9,29.95,WNW,301,0.0,3.0,72,0.00,,,0.00,0.00,VWS V14.00,2013-07-07 01:07:00,
2013-07-06 21:13:00,73.1,63.5,29.95,WNW,302,1.0,1.0,72,0.00,,,0.00,0.00,VWS V14.00,2013-07-07 01:13:00,
2013-07-06 21:18:00,72.8,63.7,29.96,WNW,302,2.0,3.0,73,0.00,,,0.00,0.00,VWS V14.00,2013-07-07 01:18:00,
2013-07-06 21:23:00,72.5,63.8,29.96,WNW,302,0.0,4.0,74,0.00,,,0.00,0.00,VWS V14.00,2013-07-07 01:23:00,
2013-07-06 21:28:00,72.1,63.8,29.96,WNW,302,0.0,3.0,75,0.00,,,0.00,0.00,VWS V14.00,2013-07-07 01:28:00,
2013-07-06 21:33:00,71.7,63.7,29.97,WNW,300,1.0,1.0,76,0.00,,,0.00,0.00,VWS V14.00,2013-07-07 01:33:00,
2013-07-06 21:38:00,71.4,63.5,29.96,WNW,302,0.0,1.0,76,0.00,,,0.00,0.00,VWS V14.00,2013-07-07 01:38:00,
2013-07-06 21:43:00,71.1,63.5,29.97,WNW,300,0.0,1.0,77,0.00,,,0.00,0.00,VWS V14.00,2013-07-07 01:43:00,
2013-07-06 21:49:00,70.8,63.6,29.97,WNW,302,0.0,0.0,78,0.00,,,0.00,0.00,VWS V14.00,2013-07-07 01:49:00,
2013-07-06 21:54:00,70.3,63.5,29.97,WNW,302,0.0,1.0,79,0.00,,,0.00,0.00,VWS V14.00,2013-07-07 01:54:00,
2013-07-06 21:59:00,69.9,63.1,29.98,WNW,302,0.0,1.0,79,0.00,,,0.00,0.00,VWS V14.00,2013-07-07 01:59:00,
2013-07-06 22:04:00,69.5,63.1,29.97,NW,304,0.0,3.0,80,0.00,,,0.00,0.00,VWS V14.00,2013-07-07 02:04:00,
2013-07-06 22:10:00,69.2,62.8,29.97,NW,304,3.0,3.0,80,0.00,,,0.00,0.00,VWS V14.00,2013-07-07 02:10:00,
2013-07-06 22:15:00,68.8,62.7,29.97,WNW,303,0.0,4.0,81,0.00,,,0.00,0.00,VWS V14.00,2013-07-07 02:15:00,
2013-07-06 22:20:00,68.6,62.2,29.97,WNW,288,1.0,7.0,80,0.00,,,0.00,0.00,VWS V14.00,2013-07-07 02:20:00,
2013-07-06 22:25:00,68.6,62.5,29.97,WNW,287,2.0,3.0,81,0.00,,,0.00,0.00,VWS V14.00,2013-07-07 02:25:00,
2013-07-06 22:30:00,68.6,62.5,29.98,WNW,288,7.0,7.0,81,0.00,,,0.00,0.00,VWS V14.00,2013-07-07 02:30:00,
2013-07-06 22:35:00,68.7,62.3,29.98,NW,309,0.0,7.0,80,0.00,,,0.00,0.00,VWS V14.00,2013-07-07 02:35:00,
2013-07-06 22:40:00,68.8,62.4,29.98,NW,309,0.0,2.0,80,0.00,,,0.00,0.00,VWS V14.00,2013-07-07 02:40:00,
2013-07-06 22:45:00,68.9,62.1,29.98,NW,315,0.0,4.0,79,0.00,,,0.00,0.00,VWS V14.00,2013-07-07 02:45:00,
2013-07-06 22:51:00,69.0,62.2,29.97,WNW,297,0.0,7.0,79,0.00,,,0.00,0.00,VWS V14.00,2013-07-07 02:51:00,
2013-07-06 22:56:00,69.1,62.0,29.97,WNW,285,2.0,3.0,78,0.00,,,0.00,0.00,VWS V14.00,2013-07-07 02:56:00,
2013-07-06 23:01:00,69.2,62.1,29.98,WNW,291,1.0,2.0,78,0.00,,,0.00,0.00,VWS V14.00,2013-07-07 03:01:00,
2013-07-06 23:06:00,69.3,62.2,29.98,WNW,287,0.0,1.0,78,0.00,,,0.00,0.00,VWS V14.00,2013-07-07 03:06:00,
2013-07-06 23:11:00,69.4,62.2,29.98,NW,305,2.0,5.0,78,0.00,,,0.00,0.00,VWS V14.00,2013-07-07 03:11:00,
2013-07-06 23:16:00,69.6,62.1,29.98,WNW,285,1.0,1.0,77,0.00,,,0.00,0.00,VWS V14.00,2013-07-07 03:16:00,
2013-07-06 23:21:00,69.7,61.8,29.98,WNW,293,0.0,2.0,76,0.00,,,0.00,0.00,VWS V14.00,2013-07-07 03:21:00,
2013-07-06 23:26:00,69.8,61.5,29.98,NNW,333,1.0,4.0,75,0.00,,,0.00,0.00,VWS V14.00,2013-07-07 03:26:00,
2013-07-06 23:31:00,69.8,61.5,29.98,North,360,0.0,1.0,75,0.00,,,0.00,0.00,VWS V14.00,2013-07-07 03:31:00,
2013-07-06 23:37:00,69.8,61.2,29.98,NW,309,2.0,3.0,74,0.00,,,0.00,0.00,VWS V14.00,2013-07-07 03:37:00,
2013-07-06 23:42:00,69.8,61.2,29.98,WNW,297,1.0,4.0,74,0.00,,,0.00,0.00,VWS V14.00,2013-07-07 03:42:00,
2013-07-06 23:48:00,69.7,61.0,29.98,WNW,292,0.0,4.0,74,0.00,,,0.00,0.00,VWS V14.00,2013-07-07 03:48:00,
2013-07-06 23:53:00,69.6,60.6,29.98,NW,311,0.0,5.0,73,0.00,,,0.00,0.00,VWS V14.00,2013-07-07 03:53:00,
2013-07-06 23:58:00,69.5,60.5,29.98,WNW,297,0.0,3.0,73,0.00,,,0.00,0.00,VWS V14.00,2013-07-07 03:58:00,